Time;durP1;ratioP1;P1;durP2;ratioP2;P2;SDS_P1;SDS_P2;PMS_P1;PMS_P2;Temp;Humidity;BMP_temperature;BMP_pressure;BME280_temperature;BME280_humidity;BME280_pressure;Samples;Min_cycle;Max_cycle;Signal;HPM_P1;HPM_P2
2022/08/20 00:01:03;;;;;;;8.08;4.37;;;;;;;20.23;69.18;100380.63;1700278;83;21095;-46
2022/08/20 00:03:36;;;;;;;8.83;4.17;;;;;;;20.20;69.18;100385.01;1697028;83;21244;-46
2022/08/20 00:06:14;;;;;;;8.45;3.72;;;;;;;20.19;69.30;100381.19;1690819;82;21190;-47
2022/08/20 00:08:41;;;;;;;7.37;3.98;;;;;;;20.19;69.33;100382.52;1690997;82;21038;-47
2022/08/20 00:11:09;;;;;;;6.60;4.08;;;;;;;20.21;69.34;100383.19;1679361;83;21141;-47
2022/08/20 00:13:43;;;;;;;6.90;3.85;;;;;;;20.19;69.30;100382.03;1699082;82;21122;-48
2022/08/20 00:16:11;;;;;;;6.47;4.05;;;;;;;20.15;69.35;100377.23;1706026;84;21230;-47
2022/08/20 00:18:38;;;;;;;6.75;4.35;;;;;;;20.12;69.44;100379.76;1706654;83;21123;-47
2022/08/20 00:21:07;;;;;;;8.05;3.83;;;;;;;20.12;69.41;100377.09;1697802;82;21063;-47
2022/08/20 00:23:39;;;;;;;7.45;4.28;;;;;;;20.16;69.39;100378.39;1702534;82;21112;-47
2022/08/20 00:26:06;;;;;;;6.70;3.70;;;;;;;20.18;69.41;100385.70;1707379;83;21066;-47
2022/08/20 00:28:33;;;;;;;7.42;4.30;;;;;;;20.18;69.43;100383.03;1709472;83;21321;-48
2022/08/20 00:31:06;;;;;;;8.70;4.00;;;;;;;20.17;69.49;100381.88;1704745;82;21118;-48
2022/08/20 00:33:33;;;;;;;7.00;3.87;;;;;;;20.15;69.47;100390.08;1714501;83;21038;-49
2022/08/20 00:36:05;;;;;;;5.83;3.52;;;;;;;20.15;69.48;100386.59;1707809;82;21059;-48
2022/08/20 00:38:30;;;;;;;5.85;3.70;;;;;;;20.17;69.43;100390.75;1703666;83;21078;-47
2022/08/20 00:40:57;;;;;;;7.45;3.65;;;;;;;20.19;69.40;100394.05;1701714;83;21637;-47
2022/08/20 00:43:40;;;;;;;7.15;4.05;;;;;;;20.21;69.43;100397.88;1705425;83;21621;-48
2022/08/20 00:46:17;;;;;;;6.45;4.08;;;;;;;20.18;69.56;100399.06;1693253;83;21079;-46
2022/08/20 00:48:49;;;;;;;7.22;4.08;;;;;;;20.16;69.66;100394.42;1692946;83;21073;-48
2022/08/20 00:51:36;;;;;;;7.15;3.80;;;;;;;20.13;69.76;100398.80;1679036;83;21580;-47
2022/08/20 00:54:22;;;;;;;8.08;3.95;;;;;;;20.11;69.80;100406.69;1700771;82;21503;-48
2022/08/20 00:56:53;;;;;;;8.30;3.92;;;;;;;20.16;69.66;100408.30;1709336;83;21082;-48
2022/08/20 00:59:22;;;;;;;7.08;3.55;;;;;;;20.19;69.45;100408.75;1689109;83;21134;-48
2022/08/20 01:01:49;;;;;;;6.42;3.90;;;;;;;20.20;69.56;100406.37;1707189;83;22250;-47
2022/08/20 01:04:16;;;;;;;7.15;4.20;;;;;;;20.20;69.49;100395.69;1708550;82;21583;-48
2022/08/20 01:06:43;;;;;;;7.45;4.28;;;;;;;20.21;69.36;100392.53;1700514;83;21254;-47
2022/08/20 01:09:10;;;;;;;5.45;3.70;;;;;;;20.16;69.47;100393.60;1704795;83;21131;-48
2022/08/20 01:11:37;;;;;;;7.05;3.70;;;;;;;20.12;69.49;100399.80;1699742;82;21118;-48
2022/08/20 01:14:26;;;;;;;5.87;3.72;;;;;;;20.09;69.67;100400.19;1682008;84;21086;-48
2022/08/20 01:16:44;;;;;;;6.87;3.90;;;;;;;20.04;69.88;100393.23;1701798;82;21067;-47
2022/08/20 01:19:12;;;;;;;9.40;4.22;;;;;;;19.98;70.09;100400.13;1684922;83;21140;-47
2022/08/20 01:21:39;;;;;;;5.37;3.50;;;;;;;19.95;70.38;100399.67;1708257;83;21106;-47
2022/08/20 01:24:20;;;;;;;7.37;3.27;;;;;;;19.91;70.57;100395.20;1690830;83;21595;-46
2022/08/20 01:26:47;;;;;;;6.08;3.65;;;;;;;19.90;70.66;100391.38;1687566;83;21102;-48
2022/08/20 01:29:21;;;;;;;6.17;3.90;;;;;;;19.91;70.71;100397.88;1710341;82;21577;-48
2022/08/20 01:31:48;;;;;;;9.65;3.45;;;;;;;19.91;70.69;100394.39;1711822;83;22059;-48
2022/08/20 01:34:17;;;;;;;9.43;3.12;;;;;;;19.88;70.60;100389.41;1704211;83;21567;-47
2022/08/20 01:36:50;;;;;;;6.00;3.75;;;;;;;19.82;70.79;100390.47;1697194;82;21056;-47
2022/08/20 01:39:22;;;;;;;9.10;4.10;;;;;;;19.76;70.92;100381.84;1705906;82;21016;-47
2022/08/20 01:42:14;;;;;;;5.72;3.67;;;;;;;19.73;71.11;100381.36;1710547;83;21568;-48
2022/08/20 01:44:43;;;;;;;8.63;3.83;;;;;;;19.71;71.26;100375.38;1697282;83;21659;-49
2022/08/20 01:47:21;;;;;;;9.28;3.95;;;;;;;19.66;71.29;100371.91;1694890;82;21055;-47
2022/08/20 01:49:55;;;;;;;6.08;3.67;;;;;;;19.62;71.60;100367.97;1684443;83;21071;-48
2022/08/20 01:52:56;;;;;;;7.15;4.30;;;;;;;19.59;71.80;100367.81;1685059;83;21090;-46
2022/08/20 01:55:23;;;;;;;8.33;4.40;;;;;;;19.58;71.90;100370.66;1704705;83;21115;-48
2022/08/20 01:57:49;;;;;;;7.35;4.20;;;;;;;19.60;71.91;100370.81;1705808;83;21860;-48
2022/08/20 02:00:18;;;;;;;7.47;4.40;;;;;;;19.63;72.08;100370.94;1706295;82;21032;-48
2022/08/20 02:02:45;;;;;;;6.90;4.72;;;;;;;19.66;72.04;100376.73;1705262;83;21090;-48
2022/08/20 02:05:11;;;;;;;7.83;4.95;;;;;;;19.70;71.96;100375.05;1706514;84;21036;-48
2022/08/20 02:07:38;;;;;;;8.70;5.47;;;;;;;19.65;72.06;100379.59;1702972;83;21597;-48
2022/08/20 02:10:09;;;;;;;9.83;5.47;;;;;;;19.68;72.20;100388.56;1700108;84;22156;-48
2022/08/20 02:12:38;;;;;;;8.38;6.25;;;;;;;19.73;72.08;100386.69;1703117;83;20992;-48
2022/08/20 02:15:09;;;;;;;10.35;6.75;;;;;;;19.77;71.83;100383.52;1699623;82;21099;-48
2022/08/20 02:17:36;;;;;;;8.85;6.10;;;;;;;19.79;71.73;100388.67;1705013;83;21063;-48
2022/08/20 02:20:12;;;;;;;10.95;7.28;;;;;;;19.81;71.69;100398.66;1702808;84;21129;-48
2022/08/20 02:22:44;;;;;;;8.43;6.35;;;;;;;19.85;71.60;100392.78;1697607;82;21102;-46
2022/08/20 02:25:11;;;;;;;7.40;4.92;;;;;;;19.89;71.47;100395.91;1697859;83;21578;-52
2022/08/20 02:27:40;;;;;;;8.30;5.55;;;;;;;19.93;71.28;100390.50;1703834;83;21530;-46
2022/08/20 02:30:15;;;;;;;6.78;4.78;;;;;;;19.98;71.26;100385.95;1697610;83;21078;-46
2022/08/20 02:32:41;;;;;;;8.87;4.97;;;;;;;20.00;71.18;100378.58;1699180;83;21115;-46
2022/08/20 02:35:10;;;;;;;9.10;5.00;;;;;;;20.00;71.05;100378.06;1702078;82;21231;-46
2022/08/20 02:37:38;;;;;;;7.17;3.65;;;;;;;19.97;70.96;100382.95;1692050;83;21083;-47
2022/08/20 02:40:06;;;;;;;6.65;3.90;;;;;;;19.95;70.89;100379.64;1702000;84;21083;-46
2022/08/20 02:42:35;;;;;;;6.17;3.87;;;;;;;19.90;70.79;100381.52;1697679;84;21111;-46
2022/08/20 02:45:04;;;;;;;6.20;4.05;;;;;;;19.85;70.73;100378.09;1697440;83;21076;-46
2022/08/20 02:47:32;;;;;;;7.08;4.75;;;;;;;19.79;70.95;100372.14;1696531;82;21230;-46
2022/08/20 02:49:59;;;;;;;7.28;4.33;;;;;;;19.76;71.40;100383.70;1705142;83;21012;-47
2022/08/20 02:52:25;;;;;;;8.98;5.47;;;;;;;19.77;71.61;100383.52;1706763;84;21086;-47
2022/08/20 02:54:52;;;;;;;9.00;6.72;;;;;;;19.78;71.72;100383.82;1702772;83;21099;-47
2022/08/20 02:57:22;;;;;;;9.50;6.30;;;;;;;19.84;71.62;100382.28;1704621;83;21008;-47
2022/08/20 02:59:51;;;;;;;7.30;5.55;;;;;;;19.85;71.59;100386.10;1689967;83;21864;-47
2022/08/20 03:02:17;;;;;;;7.90;4.83;;;;;;;19.86;71.25;100386.92;1698626;83;21087;-47
2022/08/20 03:04:44;;;;;;;9.85;4.85;;;;;;;19.78;71.06;100384.34;1704541;82;21081;-47
2022/08/20 03:07:13;;;;;;;9.55;5.37;;;;;;;19.66;71.40;100386.59;1722701;82;21055;-47
2022/08/20 03:09:40;;;;;;;8.90;4.35;;;;;;;19.62;71.71;100391.98;1718914;83;21046;-47
2022/08/20 03:12:07;;;;;;;9.80;4.55;;;;;;;19.63;71.85;100389.63;1755759;80;21080;-47
2022/08/20 03:14:35;;;;;;;8.08;4.92;;;;;;;19.60;71.96;100389.50;1750335;81;21510;-47
2022/08/20 03:17:02;;;;;;;6.70;4.45;;;;;;;19.57;72.29;100385.00;1754006;80;21141;-47
2022/08/20 03:19:28;;;;;;;7.50;4.70;;;;;;;19.54;72.41;100382.72;1748232;80;21071;-47
2022/08/20 03:21:55;;;;;;;7.12;4.40;;;;;;;19.49;72.67;100395.27;1733455;82;21546;-47
2022/08/20 03:24:21;;;;;;;7.40;4.28;;;;;;;19.49;72.78;100399.27;1752398;81;21254;-47
2022/08/20 03:26:48;;;;;;;7.10;4.08;;;;;;;19.54;72.73;100397.40;1739637;80;21047;-47
2022/08/20 03:29:16;;;;;;;5.92;4.28;;;;;;;19.59;72.62;100397.69;1744289;81;21482;-47
2022/08/20 03:31:43;;;;;;;8.68;4.60;;;;;;;19.60;72.44;100397.50;1733210;81;21027;-47
2022/08/20 03:34:09;;;;;;;7.10;4.92;;;;;;;19.59;72.28;100387.01;1736156;81;21125;-47
2022/08/20 03:36:36;;;;;;;8.00;4.42;;;;;;;19.55;72.22;100393.22;1744347;80;21226;-47
2022/08/20 03:39:06;;;;;;;8.83;4.20;;;;;;;19.53;72.17;100397.06;1746347;80;21055;-47
2022/08/20 03:41:32;;;;;;;8.03;4.90;;;;;;;19.53;72.04;100397.06;1720659;82;21680;-47
2022/08/20 03:43:59;;;;;;;8.18;5.03;;;;;;;19.55;71.98;100396.37;1750666;81;21035;-47
2022/08/20 03:46:25;;;;;;;6.72;4.62;;;;;;;19.57;71.99;100393.86;1750860;80;21109;-46
2022/08/20 03:48:52;;;;;;;7.25;4.90;;;;;;;19.58;71.96;100394.16;1755626;80;21232;-46
2022/08/20 03:51:18;;;;;;;7.80;4.22;;;;;;;19.55;72.00;100396.37;1756541;80;21078;-47
2022/08/20 03:53:45;;;;;;;7.30;4.87;;;;;;;19.58;71.83;100392.83;1749157;81;21117;-46
2022/08/20 03:56:12;;;;;;;10.30;4.75;;;;;;;19.65;71.69;100391.59;1756707;80;21098;-46
2022/08/20 03:58:39;;;;;;;6.45;4.80;;;;;;;19.75;71.51;100390.03;1758681;81;21117;-47
2022/08/20 04:01:06;;;;;;;6.80;4.42;;;;;;;19.78;71.29;100395.02;1715916;83;21257;-46
2022/08/20 04:03:33;;;;;;;8.33;5.03;;;;;;;19.79;71.22;100389.50;1710521;82;21130;-47
2022/08/20 04:05:59;;;;;;;6.37;4.75;;;;;;;19.78;71.16;100392.34;1716434;83;21006;-46
2022/08/20 04:08:28;;;;;;;6.25;4.62;;;;;;;19.78;70.87;100395.02;1712288;82;21090;-47
2022/08/20 04:10:58;;;;;;;7.37;5.03;;;;;;;19.79;70.94;100398.84;1706615;82;21036;-46
2022/08/20 04:13:26;;;;;;;7.30;5.20;;;;;;;19.80;70.56;100397.84;1711210;83;21403;-46
2022/08/20 04:15:54;;;;;;;9.25;5.10;;;;;;;19.71;70.76;100393.55;1685796;83;21645;-47
2022/08/20 04:18:23;;;;;;;9.38;5.37;;;;;;;19.64;70.89;100395.30;1693522;82;21328;-46
2022/08/20 04:20:50;;;;;;;8.95;5.47;;;;;;;19.61;71.23;100392.98;1695685;83;21030;-46
2022/08/20 04:23:17;;;;;;;7.70;4.95;;;;;;;19.68;71.32;100396.58;1689395;83;21098;-46
2022/08/20 04:25:44;;;;;;;7.55;5.03;;;;;;;19.76;71.27;100404.53;1685989;84;21088;-47
2022/08/20 04:28:14;;;;;;;8.80;5.75;;;;;;;19.85;71.31;100403.94;1709563;82;21514;-47
2022/08/20 04:30:41;;;;;;;7.42;5.87;;;;;;;19.90;71.13;100400.73;1692587;84;21064;-47
2022/08/20 04:33:09;;;;;;;8.10;5.83;;;;;;;19.94;71.06;100403.34;1695178;82;21110;-46
2022/08/20 04:35:35;;;;;;;8.25;5.45;;;;;;;19.95;70.96;100403.67;1694995;84;21066;-46
2022/08/20 04:38:07;;;;;;;8.33;5.78;;;;;;;19.93;70.51;100396.36;1698021;84;21244;-47
2022/08/20 04:40:53;;;;;;;8.43;5.65;;;;;;;19.88;70.55;100402.76;1698418;82;21298;-46
2022/08/20 04:43:22;;;;;;;8.48;6.20;;;;;;;19.88;70.64;100401.42;1715425;82;21140;-46
2022/08/20 04:45:48;;;;;;;8.60;5.95;;;;;;;19.93;70.73;100403.03;1718949;82;21510;-46
2022/08/20 04:48:15;;;;;;;9.33;6.22;;;;;;;19.94;70.75;100400.67;1717581;82;22246;-46
2022/08/20 04:50:43;;;;;;;9.68;5.78;;;;;;;19.93;70.77;100398.52;1672474;85;21221;-46
2022/08/20 04:53:11;;;;;;;8.60;5.67;;;;;;;19.96;70.81;100402.67;1690218;82;21129;-46
2022/08/20 04:55:41;;;;;;;7.92;5.37;;;;;;;20.06;70.81;100400.55;1692701;82;21124;-46
2022/08/20 04:58:15;;;;;;;7.33;4.85;;;;;;;20.12;70.75;100397.13;1688596;83;21071;-46
2022/08/20 05:00:47;;;;;;;6.95;4.53;;;;;;;20.16;70.41;100390.41;1698564;84;21142;-47
2022/08/20 05:03:15;;;;;;;6.97;5.25;;;;;;;20.20;70.45;100390.34;1681150;84;21953;-46
2022/08/20 05:05:43;;;;;;;7.65;5.58;;;;;;;20.21;70.44;100398.70;1701222;84;21118;-46
2022/08/20 05:08:11;;;;;;;9.93;5.05;;;;;;;20.21;70.23;100400.03;1689782;82;21079;-46
2022/08/20 05:10:38;;;;;;;9.75;4.75;;;;;;;20.23;70.12;100394.51;1689608;84;21024;-47
2022/08/20 05:13:07;;;;;;;7.10;4.15;;;;;;;20.28;70.04;100392.63;1688628;84;21630;-46
2022/08/20 05:15:34;;;;;;;7.22;4.83;;;;;;;20.31;70.10;100378.86;1698890;84;21190;-46
2022/08/20 05:18:02;;;;;;;8.05;5.12;;;;;;;20.35;70.01;100378.83;1701696;84;21552;-47
2022/08/20 05:20:31;;;;;;;7.85;4.85;;;;;;;20.36;70.11;100380.50;1699464;84;21568;-47
2022/08/20 05:22:59;;;;;;;6.50;4.58;;;;;;;20.40;69.97;100377.23;1698944;84;21071;-46
2022/08/20 05:25:29;;;;;;;6.45;4.47;;;;;;;20.41;69.93;100373.56;1699546;84;21106;-46
2022/08/20 05:27:59;;;;;;;6.80;4.58;;;;;;;20.46;69.54;100370.34;1698850;84;21162;-46
2022/08/20 05:30:32;;;;;;;5.97;3.87;;;;;;;20.56;69.19;100359.31;1701286;84;21405;-47
2022/08/20 05:32:59;;;;;;;7.00;4.45;;;;;;;20.61;69.04;100370.30;1697673;84;21071;-47
2022/08/20 05:35:26;;;;;;;7.42;4.72;;;;;;;20.63;68.79;100370.12;1692230;84;21064;-46
2022/08/20 05:37:53;;;;;;;6.75;4.58;;;;;;;20.66;68.85;100368.41;1701568;84;21021;-47
2022/08/20 05:40:21;;;;;;;6.60;4.53;;;;;;;20.68;68.80;100375.23;1695223;82;21144;-46
2022/08/20 05:42:48;;;;;;;7.40;4.80;;;;;;;20.74;68.51;100370.44;1694738;82;21507;-46
2022/08/20 05:45:16;;;;;;;6.53;4.10;;;;;;;20.80;68.18;100371.55;1699422;82;21066;-47
2022/08/20 05:47:43;;;;;;;7.50;5.12;;;;;;;20.84;68.30;100372.81;1701138;84;21466;-47
2022/08/20 05:50:11;;;;;;;7.40;4.40;;;;;;;20.89;68.42;100368.23;1697212;82;21661;-46
2022/08/20 05:52:39;;;;;;;6.83;4.12;;;;;;;20.92;68.10;100366.00;1699166;84;21878;-47
2022/08/20 05:55:07;;;;;;;8.05;4.75;;;;;;;20.95;67.93;100359.45;1699767;84;21533;-46
2022/08/20 05:57:33;;;;;;;9.53;4.17;;;;;;;20.97;67.90;100362.24;1702363;83;21086;-47
2022/08/20 06:00:04;;;;;;;6.15;3.85;;;;;;;21.07;67.92;100362.44;1694438;83;21063;-47
2022/08/20 06:05:18;;;;;;;6.70;4.17;;;;;;;21.22;67.14;100373.89;1698607;83;21164;-47
2022/08/20 06:07:46;;;;;;;7.03;4.15;;;;;;;21.25;67.36;100365.48;1699241;83;21538;-47
2022/08/20 06:10:13;;;;;;;6.15;4.03;;;;;;;21.28;67.16;100370.45;1680188;83;21091;-47
2022/08/20 06:12:39;;;;;;;7.42;4.33;;;;;;;21.30;66.87;100369.74;1700272;84;21062;-47
2022/08/20 06:15:07;;;;;;;6.33;4.03;;;;;;;21.33;66.58;100371.19;1694194;83;21014;-47
2022/08/20 06:17:34;;;;;;;5.47;3.12;;;;;;;21.41;66.56;100373.72;1692559;84;21892;-46
2022/08/20 06:20:05;;;;;;;6.08;4.03;;;;;;;21.48;66.43;100369.80;1694414;83;21087;-47
2022/08/20 06:22:34;;;;;;;7.10;4.08;;;;;;;21.49;66.32;100368.27;1699211;84;21079;-47
2022/08/20 06:25:01;;;;;;;6.47;4.15;;;;;;;21.56;66.34;100373.66;1689399;83;21158;-47
2022/08/20 06:27:27;;;;;;;6.40;3.02;;;;;;;21.59;66.36;100373.28;1689776;83;21070;-47
2022/08/20 06:29:54;;;;;;;5.58;3.55;;;;;;;21.64;66.19;100381.55;1695147;83;21114;-47
2022/08/20 06:32:23;;;;;;;6.83;3.92;;;;;;;21.73;65.98;100382.74;1702182;84;21060;-47
2022/08/20 06:34:50;;;;;;;7.17;3.72;;;;;;;21.75;65.73;100384.70;1696747;83;21012;-47
2022/08/20 06:37:24;;;;;;;6.00;4.03;;;;;;;21.77;65.86;100383.98;1698599;84;21067;-47
2022/08/20 06:39:51;;;;;;;6.30;3.70;;;;;;;21.77;65.64;100378.63;1697579;83;21137;-46
2022/08/20 06:42:19;;;;;;;6.12;3.87;;;;;;;21.77;65.71;100378.63;1696153;84;21148;-46
2022/08/20 06:44:49;;;;;;;5.72;3.33;;;;;;;21.80;65.37;100383.08;1686778;83;21051;-48
2022/08/20 06:47:18;;;;;;;5.95;3.42;;;;;;;21.89;64.84;100376.56;1691243;83;21056;-47
2022/08/20 06:49:44;;;;;;;6.37;3.20;;;;;;;22.02;64.35;100374.47;1693152;83;21545;-47
2022/08/20 06:52:11;;;;;;;5.10;3.20;;;;;;;22.07;64.23;100384.08;1693601;83;21538;-47
2022/08/20 06:54:38;;;;;;;6.33;3.60;;;;;;;22.12;64.48;100378.63;1693505;83;21118;-46
2022/08/20 06:57:05;;;;;;;7.80;3.25;;;;;;;22.13;63.94;100365.03;1699713;83;21087;-47
2022/08/20 06:59:31;;;;;;;6.17;3.35;;;;;;;22.11;64.00;100374.28;1708676;82;21035;-47
2022/08/20 07:01:58;;;;;;;5.87;3.58;;;;;;;22.06;63.88;100366.86;1707227;83;21133;-47
2022/08/20 07:04:25;;;;;;;4.80;2.87;;;;;;;22.12;63.88;100374.61;1707965;83;21530;-47
2022/08/20 07:06:53;;;;;;;5.20;2.83;;;;;;;22.26;63.82;100373.66;1704248;83;21352;-47
2022/08/20 07:09:21;;;;;;;6.00;3.02;;;;;;;22.45;63.38;100384.16;1706922;82;21118;-47
2022/08/20 07:11:48;;;;;;;4.83;2.70;;;;;;;22.60;63.13;100377.30;1696416;84;21075;-47
2022/08/20 07:14:17;;;;;;;7.47;3.83;;;;;;;22.73;62.81;100385.38;1696056;83;21078;-48
2022/08/20 07:16:45;;;;;;;6.17;4.17;;;;;;;22.87;62.95;100380.86;1688302;82;21063;-47
2022/08/20 07:19:13;;;;;;;7.55;4.70;;;;;;;22.99;62.50;100373.03;1698571;83;21247;-47
2022/08/20 07:21:40;;;;;;;9.38;6.28;;;;;;;23.02;61.57;100371.81;1640809;86;21018;-47
2022/08/20 07:24:08;;;;;;;7.10;4.65;;;;;;;23.03;61.22;100371.58;1662259;85;21891;-46
2022/08/20 07:26:36;;;;;;;7.17;4.53;;;;;;;23.02;61.53;100369.95;1650389;85;21553;-49
2022/08/20 07:29:03;;;;;;;7.47;4.67;;;;;;;23.05;61.15;100367.36;1634361;86;21162;-47
2022/08/20 07:34:14;;;;;;;6.13;3.60;;;;;;;23.08;60.80;100377.22;1656609;85;21094;-48
2022/08/20 07:36:42;;;;;;;5.65;3.25;;;;;;;23.06;60.57;100376.58;1651610;86;21165;-47
2022/08/20 07:39:08;;;;;;;6.05;3.33;;;;;;;23.02;60.50;100373.16;1632704;87;21155;-48
2022/08/20 07:41:35;;;;;;;5.50;3.52;;;;;;;23.01;60.92;100372.31;1642153;86;21074;-47
2022/08/20 07:44:01;;;;;;;4.83;2.85;;;;;;;23.05;61.47;100368.20;1662103;84;21311;-47
2022/08/20 07:46:30;;;;;;;5.10;2.98;;;;;;;23.07;60.80;100362.66;1664612;84;21030;-47
2022/08/20 07:48:56;;;;;;;6.00;2.90;;;;;;;23.07;61.14;100362.14;1703738;83;21055;-47
2022/08/20 07:51:23;;;;;;;4.87;2.85;;;;;;;23.13;60.52;100365.35;1631552;85;21584;-47
2022/08/20 07:53:50;;;;;;;6.08;2.87;;;;;;;23.15;60.56;100356.57;1637183;86;21051;-47
2022/08/20 07:56:22;;;;;;;4.53;2.75;;;;;;;23.14;60.15;100360.27;1637912;85;21272;-47
2022/08/20 07:58:54;;;;;;;5.67;2.50;;;;;;;23.17;60.57;100355.02;1687792;83;21064;-47
2022/08/20 08:01:28;;;;;;;4.15;2.30;;;;;;;23.21;60.07;100358.94;1693803;82;21070;-47
2022/08/20 08:03:56;;;;;;;6.40;2.87;;;;;;;23.18;59.46;100350.80;1712796;82;21031;-47
2022/08/20 08:06:23;;;;;;;6.62;3.10;;;;;;;23.16;59.60;100354.17;1695079;82;21216;-47
2022/08/20 08:08:49;;;;;;;6.50;2.95;;;;;;;23.19;59.46;100354.30;1714642;82;21129;-47
2022/08/20 08:11:18;;;;;;;5.05;2.62;;;;;;;23.19;59.29;100351.61;1696050;82;21078;-48
2022/08/20 08:13:44;;;;;;;6.65;2.72;;;;;;;23.16;59.38;100347.47;1716447;83;21459;-47
2022/08/20 08:16:11;;;;;;;5.35;3.15;;;;;;;23.18;59.50;100345.42;1717093;82;21110;-51
2022/08/20 08:18:45;;;;;;;4.62;2.90;;;;;;;23.25;59.57;100348.11;1720181;83;21034;-47
2022/08/20 08:21:11;;;;;;;5.05;2.62;;;;;;;23.27;59.95;100344.69;1718400;82;21569;-47
2022/08/20 08:23:44;;;;;;;4.40;2.47;;;;;;;23.34;59.71;100348.72;1715954;82;21035;-46
2022/08/20 08:26:08;;;;;;;4.30;2.35;;;;;;;23.41;59.50;100340.12;1711739;82;21051;-47
2022/08/20 08:28:35;;;;;;;3.85;1.90;;;;;;;23.47;58.63;100333.09;1717838;83;21373;-47
2022/08/20 08:31:02;;;;;;;4.08;2.10;;;;;;;23.51;58.02;100328.44;1716166;82;21070;-47
2022/08/20 08:33:31;;;;;;;4.10;2.00;;;;;;;23.54;57.74;100333.40;1719952;83;21085;-47
2022/08/20 08:36:04;;;;;;;4.20;2.22;;;;;;;23.54;57.87;100325.87;1713755;82;21067;-47
2022/08/20 08:38:33;;;;;;;3.87;2.20;;;;;;;23.53;57.77;100325.02;1714188;82;21711;-47
2022/08/20 08:41:07;;;;;;;4.67;2.30;;;;;;;23.56;57.92;100327.30;1714491;82;21115;-47
2022/08/20 08:43:34;;;;;;;3.80;1.55;;;;;;;23.65;58.07;100319.02;1679595;83;21043;-47
2022/08/20 08:46:04;;;;;;;5.53;2.67;;;;;;;23.72;57.07;100322.50;1718001;82;21250;-47
2022/08/20 08:48:39;;;;;;;4.80;2.15;;;;;;;23.82;56.67;100320.25;1719172;82;21066;-47
2022/08/20 08:51:10;;;;;;;4.62;2.12;;;;;;;23.91;56.70;100321.66;1715988;82;21562;-48
2022/08/20 08:53:38;;;;;;;4.15;1.90;;;;;;;24.00;56.94;100320.08;1719977;83;21074;-49
2022/08/20 08:56:06;;;;;;;3.27;1.60;;;;;;;24.11;56.37;100315.39;1713174;82;21011;-47
2022/08/20 08:58:34;;;;;;;4.42;1.92;;;;;;;24.16;55.34;100311.53;1719153;83;21110;-47
2022/08/20 09:01:13;;;;;;;4.92;2.02;;;;;;;24.13;55.14;100321.37;1714798;82;21507;-47
2022/08/20 09:03:42;;;;;;;4.12;1.72;;;;;;;24.10;55.07;100318.57;1688104;83;21079;-46
2022/08/20 09:06:16;;;;;;;3.85;1.82;;;;;;;24.10;55.33;100323.95;1716326;82;22385;-46
2022/08/20 09:08:53;;;;;;;3.33;1.60;;;;;;;24.15;55.49;100315.78;1719696;82;21082;-46
2022/08/20 09:11:22;;;;;;;3.52;1.57;;;;;;;24.23;55.28;100317.70;1702769;82;21165;-47
2022/08/20 09:13:49;;;;;;;4.20;1.77;;;;;;;24.33;55.48;100319.11;1704811;82;21944;-49
2022/08/20 09:16:15;;;;;;;3.92;2.00;;;;;;;24.41;54.84;100320.17;1710254;82;21517;-47
2022/08/20 09:18:42;;;;;;;3.30;1.37;;;;;;;24.46;54.78;100310.94;1691524;83;21130;-46
2022/08/20 09:21:09;;;;;;;4.35;1.90;;;;;;;24.54;54.60;100320.10;1712483;82;21089;-47
2022/08/20 09:23:37;;;;;;;3.52;1.50;;;;;;;24.66;54.30;100322.45;1719486;82;21234;-46
2022/08/20 09:26:04;;;;;;;3.70;1.70;;;;;;;24.75;54.46;100320.31;1716955;83;21071;-47
2022/08/20 09:28:30;;;;;;;4.10;1.85;;;;;;;24.82;54.00;100321.08;1718848;82;21026;-46
2022/08/20 09:30:57;;;;;;;4.75;1.72;;;;;;;24.85;53.84;100317.14;1711205;82;21082;-46
2022/08/20 09:33:23;;;;;;;4.15;2.05;;;;;;;24.83;53.60;100317.86;1719090;82;21072;-46
2022/08/20 09:35:50;;;;;;;3.58;1.80;;;;;;;24.88;52.72;100326.63;1711319;82;21219;-47
2022/08/20 09:38:17;;;;;;;3.80;1.82;;;;;;;24.90;53.12;100325.39;1716723;82;21092;-47
2022/08/20 09:40:43;;;;;;;5.30;2.02;;;;;;;24.93;52.47;100321.41;1708892;82;21049;-46
2022/08/20 09:43:10;;;;;;;3.77;1.85;;;;;;;24.96;52.15;100320.45;1710166;82;21692;-47
2022/08/20 09:45:36;;;;;;;3.70;1.87;;;;;;;25.04;52.78;100322.88;1716336;82;21072;-47
2022/08/20 09:48:03;;;;;;;4.90;2.10;;;;;;;25.15;52.36;100316.47;1715429;83;22021;-46
2022/08/20 09:50:33;;;;;;;7.15;2.27;;;;;;;25.26;52.16;100318.98;1714819;82;21161;-47
2022/08/20 09:53:00;;;;;;;4.95;2.10;;;;;;;25.33;52.07;100322.45;1690673;84;22325;-47
2022/08/20 09:55:37;;;;;;;4.92;1.98;;;;;;;25.47;51.59;100323.14;1704017;82;21561;-48
2022/08/20 09:58:35;;;;;;;4.20;2.17;;;;;;;25.55;51.13;100318.31;1691254;82;21065;-47
2022/08/20 10:01:06;;;;;;;3.85;1.80;;;;;;;25.58;51.25;100321.87;1708965;82;21236;-46
2022/08/20 10:03:33;;;;;;;4.15;2.30;;;;;;;25.66;51.34;100326.69;1718390;82;21506;-47
2022/08/20 10:05:59;;;;;;;4.50;2.30;;;;;;;25.66;51.59;100323.47;1717982;82;21067;-46
2022/08/20 10:08:26;;;;;;;4.10;1.90;;;;;;;25.62;50.97;100322.28;1657953;84;21083;-46
2022/08/20 10:10:53;;;;;;;3.95;1.98;;;;;;;25.58;51.32;100321.06;1694795;82;21149;-47
2022/08/20 10:13:20;;;;;;;4.00;1.85;;;;;;;25.61;51.22;100323.31;1719263;83;21259;-47
2022/08/20 10:15:46;;;;;;;5.08;2.45;;;;;;;25.62;51.63;100324.97;1710148;82;21197;-47
2022/08/20 10:18:14;;;;;;;4.50;2.22;;;;;;;25.63;52.20;100323.91;1719512;82;21050;-47
2022/08/20 10:20:41;;;;;;;4.10;2.02;;;;;;;25.68;52.71;100324.06;1702677;82;21063;-47
2022/08/20 10:23:08;;;;;;;4.15;2.08;;;;;;;25.77;52.70;100313.80;1712004;82;21142;-47
2022/08/20 10:25:34;;;;;;;4.72;2.25;;;;;;;25.85;51.99;100322.93;1697002;82;21502;-47
2022/08/20 10:28:01;;;;;;;6.10;2.05;;;;;;;25.87;51.07;100315.97;1701665;82;21570;-46
2022/08/20 10:30:28;;;;;;;4.45;2.02;;;;;;;25.92;50.98;100312.08;1693644;82;21549;-47
2022/08/20 10:32:54;;;;;;;4.05;2.05;;;;;;;25.95;51.27;100318.39;1706837;82;21090;-46
2022/08/20 10:35:21;;;;;;;3.90;2.12;;;;;;;26.05;51.12;100323.26;1711106;82;21145;-47
2022/08/20 10:37:48;;;;;;;3.90;1.95;;;;;;;26.13;50.47;100321.61;1715438;83;21995;-47
2022/08/20 10:40:14;;;;;;;4.45;2.02;;;;;;;26.18;50.07;100316.88;1714055;82;21027;-47
2022/08/20 10:42:42;;;;;;;4.00;1.90;;;;;;;26.20;50.01;100319.63;1715185;83;21058;-48
2022/08/20 10:45:10;;;;;;;5.37;1.87;;;;;;;26.24;49.68;100318.65;1718450;82;21098;-47
2022/08/20 10:47:38;;;;;;;3.83;1.90;;;;;;;26.30;49.33;100316.40;1710583;82;21073;-46
2022/08/20 10:50:07;;;;;;;3.92;1.87;;;;;;;26.36;49.28;100315.49;1711500;82;21108;-47
2022/08/20 10:52:34;;;;;;;3.72;1.60;;;;;;;26.42;49.22;100306.47;1716833;83;21069;-47
2022/08/20 10:55:03;;;;;;;3.67;1.57;;;;;;;26.53;48.98;100310.27;1716001;83;21601;-47
2022/08/20 10:57:30;;;;;;;4.85;2.12;;;;;;;26.57;48.82;100307.39;1710111;82;21089;-47
2022/08/20 10:59:58;;;;;;;4.55;2.12;;;;;;;26.64;48.62;100304.09;1683014;83;21081;-47
2022/08/20 11:02:25;;;;;;;4.70;1.72;;;;;;;26.64;48.21;100304.09;1727472;81;21131;-47
2022/08/20 11:04:52;;;;;;;3.75;1.85;;;;;;;26.63;48.21;100314.61;1737398;81;21088;-47
2022/08/20 11:07:30;;;;;;;3.95;1.95;;;;;;;26.64;48.09;100311.37;1695100;82;20995;-47
2022/08/20 11:09:57;;;;;;;4.37;1.90;;;;;;;26.68;47.81;100307.17;1699177;83;21046;-48
2022/08/20 11:25:51;;;;;;;5.12;1.80;;;;;;;28.20;46.89;100277.56;1774543;77;22064;-48
2022/08/20 11:28:18;;;;;;;3.77;1.70;;;;;;;28.41;45.93;100283.33;1741463;80;21003;-48
2022/08/20 11:30:46;;;;;;;3.58;1.75;;;;;;;28.50;45.27;100284.05;1749026;81;21234;-48
2022/08/20 11:33:12;;;;;;;4.10;1.70;;;;;;;28.47;44.24;100280.47;1737474;80;21167;-48
2022/08/20 11:35:40;;;;;;;3.92;1.65;;;;;;;28.42;44.56;100279.58;1750724;80;21095;-48
2022/08/20 11:38:07;;;;;;;3.60;1.80;;;;;;;28.49;45.05;100276.17;1747355;80;21008;-48
2022/08/20 11:40:33;;;;;;;3.72;1.70;;;;;;;28.55;43.97;100271.14;1748096;80;20946;-48
2022/08/20 11:43:00;;;;;;;3.77;1.80;;;;;;;28.60;44.02;100271.26;1749321;80;22145;-48
2022/08/20 11:45:26;;;;;;;4.50;1.70;;;;;;;28.71;43.69;100281.20;1718356;82;21510;-48
2022/08/20 11:47:53;;;;;;;3.08;1.57;;;;;;;28.84;43.85;100276.52;1744670;81;21766;-48
2022/08/20 11:50:20;;;;;;;3.20;1.40;;;;;;;28.94;43.15;100275.31;1730342;81;21114;-49